createdAt,value
2019-04-28T00:00:31.442Z,6.40
2019-04-28T00:03:52.383Z,6.08
2019-04-28T00:06:23.430Z,8.68
2019-04-28T00:08:52.912Z,5.35
2019-04-28T00:11:22.260Z,9.55
2019-04-28T00:13:53.612Z,8.58
2019-04-28T00:16:23.208Z,7.83
2019-04-28T00:18:52.618Z,9.98
2019-04-28T00:21:32.643Z,8.10
2019-04-28T00:24:03.698Z,9.13
2019-04-28T00:26:46.424Z,9.90
2019-04-28T00:29:18.303Z,7.42
2019-04-28T00:31:51.254Z,7.45
2019-04-28T00:34:21.354Z,7.00
2019-04-28T00:36:52.615Z,8.90
2019-04-28T00:39:22.763Z,7.92
2019-04-28T00:41:52.185Z,9.85
2019-04-28T00:44:22.509Z,10.18
2019-04-28T00:46:53.042Z,8.18
2019-04-28T00:49:41.947Z,10.82
2019-04-28T00:52:11.287Z,9.80
2019-04-28T00:54:42.077Z,9.43
2019-04-28T00:57:11.596Z,9.55
2019-04-28T00:59:52.237Z,9.03
2019-04-28T01:02:31.012Z,10.80
2019-04-28T01:05:01.891Z,10.13
2019-04-28T01:07:33.125Z,10.30
2019-04-28T01:10:06.775Z,10.23
2019-04-28T01:12:37.213Z,11.70
2019-04-28T01:15:10.240Z,10.03
2019-04-28T01:17:56.155Z,10.88
2019-04-28T01:20:25.952Z,13.75
2019-04-28T01:22:55.305Z,14.63
2019-04-28T01:25:24.633Z,14.60
2019-04-28T01:27:54.943Z,15.65
2019-04-28T01:30:27.458Z,13.08
2019-04-28T01:33:01.231Z,13.65
2019-04-28T01:35:30.671Z,11.65
2019-04-28T01:38:00.197Z,12.40
2019-04-28T01:40:30.435Z,12.53
2019-04-28T01:42:59.907Z,12.30
2019-04-28T01:45:30.088Z,14.78
2019-04-28T01:48:01.772Z,12.40
2019-04-28T01:50:30.626Z,12.23
2019-04-28T01:52:59.948Z,12.78
2019-04-28T01:55:29.641Z,12.07
2019-04-28T01:57:59.622Z,11.95
2019-04-28T02:00:29.682Z,11.55
2019-04-28T02:03:00.414Z,13.22
2019-04-28T02:05:30.591Z,12.33
2019-04-28T02:08:00.308Z,11.30
2019-04-28T02:10:30.216Z,11.45
2019-04-28T02:12:59.966Z,16.67
2019-04-28T02:15:30.177Z,11.33
2019-04-28T02:18:00.213Z,12.80
2019-04-28T02:20:30.200Z,11.63
2019-04-28T02:23:01.329Z,11.35
2019-04-28T02:25:30.665Z,10.98
2019-04-28T02:28:00.059Z,12.20
2019-04-28T02:30:42.265Z,12.30
2019-04-28T02:33:01.573Z,12.63
2019-04-28T02:35:34.020Z,14.47
2019-04-28T02:38:02.515Z,15.70
2019-04-28T02:40:33.206Z,16.12
2019-04-28T02:43:02.566Z,17.02
2019-04-28T02:45:33.639Z,14.68
2019-04-28T02:48:04.625Z,15.93
2019-04-28T02:50:44.795Z,16.62
2019-04-28T02:53:20.884Z,15.18
2019-04-28T02:55:51.403Z,15.70
2019-04-28T02:58:22.351Z,13.15
2019-04-28T03:01:02.746Z,15.05
2019-04-28T03:03:22.655Z,11.18
2019-04-28T03:05:52.139Z,23.98
2019-04-28T03:08:21.580Z,20.55
2019-04-28T03:10:51.105Z,21.45
2019-04-28T03:13:21.066Z,17.70
2019-04-28T03:15:51.639Z,20.05
2019-04-28T03:18:21.560Z,18.50
2019-04-28T03:20:51.823Z,18.32
2019-04-28T03:23:21.710Z,18.52
2019-04-28T03:25:55.378Z,21.30
2019-04-28T03:28:41.591Z,18.07
2019-04-28T03:31:40.502Z,20.17
2019-04-28T03:33:49.283Z,19.30
2019-04-28T03:36:16.603Z,19.25
2019-04-28T03:38:46.032Z,17.23
2019-04-28T03:41:15.377Z,20.05
2019-04-28T03:43:44.705Z,21.65
2019-04-28T03:46:20.439Z,21.17
2019-04-28T03:48:50.879Z,19.45
2019-04-28T03:51:21.310Z,19.27
2019-04-28T03:53:50.869Z,20.70
2019-04-28T03:56:20.986Z,17.27
2019-04-28T03:58:50.651Z,16.97
2019-04-28T04:01:20.826Z,17.15
2019-04-28T04:03:51.584Z,19.57
2019-04-28T04:06:22.618Z,19.07
2019-04-28T04:08:52.434Z,14.00
2019-04-28T04:11:35.345Z,17.45
2019-04-28T04:14:11.451Z,17.57
2019-04-28T04:16:45.247Z,17.37
2019-04-28T04:19:15.953Z,13.38
2019-04-28T04:21:46.313Z,18.48
2019-04-28T04:24:15.720Z,14.18
2019-04-28T04:26:47.755Z,17.40
2019-04-28T04:29:17.084Z,14.15
2019-04-28T04:31:46.430Z,16.15
2019-04-28T04:34:15.783Z,16.25
2019-04-28T04:36:46.671Z,15.30
2019-04-28T04:39:15.995Z,14.68
2019-04-28T04:41:45.524Z,14.43
2019-04-28T04:44:14.936Z,16.75
2019-04-28T04:46:44.352Z,16.95
2019-04-28T04:49:13.745Z,14.90
2019-04-28T04:51:43.996Z,17.07
2019-04-28T04:54:13.615Z,18.32
2019-04-28T04:56:42.976Z,17.50
2019-04-28T04:59:12.301Z,18.32
2019-04-28T05:01:43.293Z,14.20
2019-04-28T05:04:30.758Z,17.48
2019-04-28T05:07:01.328Z,16.97
2019-04-28T05:09:31.172Z,19.90
2019-04-28T05:12:00.781Z,18.48
2019-04-28T05:14:30.116Z,18.27
2019-04-28T05:17:00.859Z,15.63
2019-04-28T05:19:31.439Z,16.15
2019-04-28T05:22:00.950Z,17.05
2019-04-28T05:24:40.263Z,15.65
2019-04-28T05:27:09.975Z,17.12
2019-04-28T05:29:39.810Z,17.42
2019-04-28T05:32:10.889Z,18.45
2019-04-28T05:34:46.846Z,15.40
2019-04-28T05:37:11.511Z,14.95
2019-04-28T05:39:40.859Z,16.07
2019-04-28T05:42:11.322Z,13.15
2019-04-28T05:44:41.021Z,15.10
2019-04-28T05:47:11.401Z,14.87
2019-04-28T05:49:51.429Z,11.75
2019-04-28T05:52:40.334Z,11.57
2019-04-28T05:55:11.612Z,10.93
2019-04-28T05:57:51.552Z,11.80
2019-04-28T06:00:26.930Z,11.93
2019-04-28T06:02:58.007Z,12.05
2019-04-28T06:05:27.341Z,13.60
2019-04-28T06:08:04.610Z,13.05
2019-04-28T06:10:33.942Z,14.43
2019-04-28T06:13:03.296Z,14.45
2019-04-28T06:15:32.618Z,18.02
2019-04-28T06:18:01.978Z,15.48
2019-04-28T06:20:31.457Z,14.98
2019-04-28T06:23:00.903Z,13.45
2019-04-28T06:25:30.345Z,13.50
2019-04-28T06:28:00.933Z,13.35
2019-04-28T06:30:30.322Z,17.15
2019-04-28T06:33:07.708Z,13.50
2019-04-28T06:35:30.698Z,17.25
2019-04-28T06:38:01.068Z,15.00
2019-04-28T06:40:30.510Z,14.58
2019-04-28T06:42:59.876Z,14.75
2019-04-28T06:45:30.368Z,15.98
2019-04-28T06:47:59.795Z,14.13
2019-04-28T06:50:29.149Z,16.30
2019-04-28T06:52:58.514Z,13.32
2019-04-28T06:55:27.880Z,16.12
2019-04-28T06:58:00.235Z,16.60
2019-04-28T07:00:29.676Z,15.55
2019-04-28T07:02:59.061Z,17.15
2019-04-28T07:05:28.471Z,17.07
2019-04-28T07:07:57.862Z,16.23
2019-04-28T07:10:30.475Z,18.00
2019-04-28T07:12:59.923Z,17.23
2019-04-28T07:15:29.329Z,15.98
2019-04-28T07:17:59.894Z,17.92
2019-04-28T07:20:30.898Z,17.45
2019-04-28T07:23:00.254Z,16.73
2019-04-28T07:25:29.617Z,15.75
2019-04-28T07:27:59.052Z,16.77
2019-04-28T07:30:28.512Z,16.10
2019-04-28T07:32:57.946Z,15.65
2019-04-28T07:35:27.271Z,12.03
2019-04-28T07:37:56.664Z,12.23
2019-04-28T07:40:26.070Z,10.13
2019-04-28T07:42:55.493Z,18.45
2019-04-28T07:45:25.169Z,10.58
2019-04-28T07:47:54.556Z,9.23
2019-04-28T07:50:23.955Z,9.63
2019-04-28T07:52:58.136Z,9.50
2019-04-28T07:55:27.525Z,8.70
2019-04-28T07:57:56.982Z,9.75
2019-04-28T08:00:27.960Z,9.25
2019-04-28T08:02:57.415Z,8.50
2019-04-28T08:05:26.786Z,10.85
2019-04-28T08:07:56.252Z,7.75
2019-04-28T08:10:25.584Z,8.38
2019-04-28T08:12:54.956Z,10.18
2019-04-28T08:15:24.367Z,8.90
2019-04-28T08:17:53.710Z,11.10
2019-04-28T08:20:23.055Z,11.03
2019-04-28T08:22:52.458Z,14.75
2019-04-28T08:25:22.013Z,13.10
2019-04-28T08:27:51.383Z,11.40
2019-04-28T08:30:20.988Z,10.60
2019-04-28T08:33:09.949Z,13.03
2019-04-28T08:35:39.286Z,12.60
2019-04-28T08:38:08.613Z,11.78
2019-04-28T08:40:37.982Z,12.47
2019-04-28T08:43:07.377Z,9.55
2019-04-28T08:45:36.863Z,9.40
2019-04-28T08:48:06.333Z,10.40
2019-04-28T08:50:35.668Z,9.78
2019-04-28T08:53:05.185Z,11.88
2019-04-28T08:55:35.539Z,9.38
2019-04-28T08:58:05.188Z,11.15
2019-04-28T09:00:34.529Z,10.55
2019-04-28T09:03:03.970Z,12.90
2019-04-28T09:05:33.323Z,14.00
2019-04-28T09:08:02.864Z,14.35
2019-04-28T09:10:32.290Z,14.23
2019-04-28T09:13:01.650Z,12.00
2019-04-28T09:15:32.186Z,11.33
2019-04-28T09:18:01.581Z,11.40
2019-04-28T09:20:30.972Z,9.00
2019-04-28T09:23:00.761Z,7.75
2019-04-28T09:25:31.576Z,8.53
2019-04-28T09:28:01.167Z,9.33
2019-04-28T09:30:30.651Z,9.65
2019-04-28T09:33:00.066Z,9.38
2019-04-28T09:35:35.376Z,8.58
2019-04-28T09:38:04.751Z,8.20
2019-04-28T09:40:34.128Z,8.03
2019-04-28T09:43:14.443Z,8.05
2019-04-28T09:45:51.550Z,6.87
2019-04-28T09:48:20.964Z,7.72
2019-04-28T09:50:50.851Z,6.15
2019-04-28T09:53:20.638Z,6.60
2019-04-28T09:55:50.092Z,8.40
2019-04-28T09:58:19.519Z,7.75
2019-04-28T10:00:48.901Z,7.65
2019-04-28T10:03:18.307Z,9.70
2019-04-28T10:05:47.780Z,7.12
2019-04-28T10:08:17.116Z,9.35
2019-04-28T10:10:49.135Z,9.00
2019-04-28T10:13:18.533Z,8.55
2019-04-28T10:15:48.033Z,7.80
2019-04-28T10:18:17.359Z,8.70
2019-04-28T10:20:46.700Z,8.78
2019-04-28T10:23:16.127Z,9.55
2019-04-28T10:25:46.299Z,7.62
2019-04-28T10:28:16.703Z,7.05
2019-04-28T10:30:49.616Z,7.33
2019-04-28T10:33:18.994Z,7.37
2019-04-28T10:35:48.360Z,7.40
2019-04-28T10:38:20.663Z,7.08
2019-04-28T10:41:00.360Z,8.05
2019-04-28T10:43:29.734Z,8.00
2019-04-28T10:45:59.234Z,5.65
2019-04-28T10:48:28.636Z,7.83
2019-04-28T10:51:01.128Z,8.38
2019-04-28T10:53:29.284Z,6.47
2019-04-28T10:55:58.627Z,7.87
2019-04-28T10:58:27.980Z,6.92
2019-04-28T11:00:57.407Z,6.83
2019-04-28T11:03:26.772Z,6.58
2019-04-28T11:05:58.129Z,7.95
2019-04-28T11:08:38.296Z,8.33
2019-04-28T11:11:15.249Z,7.08
2019-04-28T11:13:44.614Z,6.92
2019-04-28T11:16:15.589Z,6.97
2019-04-28T11:18:45.074Z,5.28
2019-04-28T11:21:14.409Z,6.83
2019-04-28T11:23:43.817Z,7.10
2019-04-28T11:26:13.264Z,6.25
2019-04-28T11:28:42.696Z,7.33
2019-04-28T11:31:12.098Z,5.30
2019-04-28T11:33:43.235Z,6.03
2019-04-28T11:36:13.751Z,8.20
2019-04-28T11:38:43.167Z,6.37
2019-04-28T11:41:12.962Z,6.83
2019-04-28T11:43:42.369Z,6.78
2019-04-28T11:46:13.464Z,5.55
2019-04-28T11:48:42.887Z,5.17
2019-04-28T11:51:12.246Z,6.60
2019-04-28T11:53:47.467Z,6.15
2019-04-28T11:56:17.244Z,6.58
2019-04-28T11:58:46.603Z,5.12
2019-04-28T12:01:17.334Z,5.22
2019-04-28T12:03:48.373Z,4.85
2019-04-28T12:06:17.783Z,4.08
2019-04-28T12:08:48.927Z,7.03
2019-04-28T12:14:28.987Z,5.58
2019-04-28T12:17:16.156Z,4.92
2019-04-28T12:19:53.050Z,5.75
2019-04-28T12:22:22.568Z,3.00
2019-04-28T12:24:51.889Z,4.67
2019-04-28T12:27:21.319Z,4.00
2019-04-28T12:29:50.642Z,6.12
2019-04-28T12:32:20.041Z,5.33
2019-04-28T12:34:49.415Z,5.62
2019-04-28T12:37:18.760Z,5.40
2019-04-28T12:39:48.172Z,4.90
2019-04-28T12:42:17.537Z,3.92
2019-04-28T12:44:46.903Z,4.42
2019-04-28T12:47:16.322Z,3.75
2019-04-28T12:49:47.383Z,5.92
2019-04-28T12:52:17.472Z,4.53
2019-04-28T12:54:46.990Z,3.92
2019-04-28T12:57:16.439Z,5.33
2019-04-28T12:59:53.331Z,4.58
2019-04-28T13:02:25.551Z,4.70
2019-04-28T13:04:56.591Z,4.22
2019-04-28T13:07:25.962Z,5.60
2019-04-28T13:09:55.319Z,4.00
2019-04-28T13:12:24.837Z,3.52
2019-04-28T13:14:55.235Z,5.62
2019-04-28T13:17:24.651Z,5.55
2019-04-28T13:19:54.017Z,6.08
2019-04-28T13:22:24.479Z,5.05
2019-04-28T13:24:53.944Z,6.90
2019-04-28T13:27:23.414Z,5.25
2019-04-28T13:29:52.815Z,5.08
2019-04-28T13:32:22.255Z,4.20
2019-04-28T13:34:51.641Z,4.42
2019-04-28T13:37:21.013Z,4.60
2019-04-28T13:39:54.729Z,4.75
2019-04-28T13:42:25.389Z,3.35
2019-04-28T13:45:02.334Z,4.80
2019-04-28T13:50:56.563Z,3.83
2019-04-28T13:53:25.958Z,3.85
2019-04-28T13:55:57.096Z,4.10
2019-04-28T13:58:28.222Z,3.00
2019-04-28T14:01:14.443Z,3.72
2019-04-28T14:04:03.600Z,4.17
2019-04-28T14:06:37.916Z,3.55
2019-04-28T14:09:10.743Z,5.10
2019-04-28T14:11:41.825Z,4.42
2019-04-28T14:14:12.455Z,5.55
2019-04-28T14:16:41.992Z,4.95
2019-04-28T14:19:12.386Z,4.58
2019-04-28T14:21:41.730Z,4.33
2019-04-28T14:24:11.107Z,4.22
2019-04-28T14:26:42.716Z,4.05
2019-04-28T14:29:12.087Z,3.87
2019-04-28T14:31:44.137Z,3.87
2019-04-28T14:34:13.683Z,3.35
2019-04-28T14:36:43.147Z,4.37
2019-04-28T14:39:13.717Z,4.20
2019-04-28T14:41:43.538Z,3.30
2019-04-28T14:44:13.089Z,4.00
2019-04-28T14:46:42.479Z,3.62
2019-04-28T14:49:11.890Z,3.08
2019-04-28T14:51:41.396Z,4.45
2019-04-28T14:54:10.829Z,3.75
2019-04-28T14:56:40.160Z,4.08
2019-04-28T14:59:09.598Z,4.05
2019-04-28T15:01:56.761Z,3.87
2019-04-28T15:04:30.528Z,2.80
2019-04-28T15:07:01.547Z,2.80
2019-04-28T15:09:38.408Z,3.62
2019-04-28T15:12:07.864Z,3.85
2019-04-28T15:14:38.447Z,3.22
2019-04-28T15:17:08.154Z,4.25
2019-04-28T15:19:37.624Z,4.45
2019-04-28T15:22:08.154Z,4.25
2019-04-28T15:24:37.547Z,4.42
2019-04-28T15:27:06.954Z,3.90
2019-04-28T15:29:36.283Z,3.83
2019-04-28T15:32:07.387Z,3.67
2019-04-28T15:34:36.788Z,4.05
2019-04-28T15:37:09.847Z,4.40
2019-04-28T15:39:37.171Z,3.08
2019-04-28T15:42:08.610Z,6.75
2019-04-28T15:44:37.948Z,2.92
2019-04-28T15:47:07.282Z,4.62
2019-04-28T15:49:36.651Z,3.20
2019-04-28T15:52:05.980Z,3.72
2019-04-28T15:54:35.416Z,2.50
2019-04-28T15:57:04.817Z,2.62
2019-04-28T15:59:34.177Z,4.15
2019-04-28T16:02:03.533Z,3.08
2019-04-28T16:04:32.931Z,3.85
2019-04-28T16:07:03.976Z,3.92
2019-04-28T16:09:33.332Z,4.50
2019-04-28T16:12:05.373Z,4.58
2019-04-28T16:14:36.417Z,3.35
2019-04-28T16:17:05.914Z,5.37
2019-04-28T16:19:35.353Z,2.50
2019-04-28T16:22:07.053Z,5.40
2019-04-28T16:24:36.413Z,3.20
2019-04-28T16:27:07.121Z,4.22
2019-04-28T16:29:37.783Z,4.35
2019-04-28T16:32:09.734Z,3.33
2019-04-28T16:34:38.299Z,3.40
2019-04-28T16:37:07.806Z,3.05
2019-04-28T16:39:37.233Z,3.50
2019-04-28T16:42:06.589Z,4.10
2019-04-28T16:44:36.511Z,3.75
2019-04-28T16:47:05.859Z,3.35
2019-04-28T16:49:35.183Z,2.60
2019-04-28T16:52:04.515Z,4.58
2019-04-28T16:54:33.853Z,3.72
2019-04-28T16:57:04.824Z,4.72
2019-04-28T16:59:44.743Z,3.08
2019-04-28T17:02:30.735Z,2.50
2019-04-28T17:05:00.080Z,3.98
2019-04-28T17:07:29.495Z,4.28
2019-04-28T17:09:58.926Z,3.70
2019-04-28T17:12:28.463Z,5.40
2019-04-28T17:14:57.913Z,3.45
2019-04-28T17:17:27.436Z,3.45
2019-04-28T17:19:56.849Z,4.15
2019-04-28T17:22:26.299Z,5.45
2019-04-28T17:24:55.646Z,3.72
2019-04-28T17:27:26.575Z,4.28
2019-04-28T17:29:56.264Z,4.83
2019-04-28T17:32:26.959Z,6.25
2019-04-28T17:34:56.395Z,3.25
2019-04-28T17:37:25.981Z,3.60
2019-04-28T17:39:55.403Z,3.35
2019-04-28T17:42:26.377Z,5.22
2019-04-28T17:44:55.809Z,4.22
2019-04-28T17:47:25.511Z,6.50
2019-04-28T17:49:54.961Z,3.92
2019-04-28T17:52:24.820Z,4.72
2019-04-28T17:54:54.406Z,4.20
2019-04-28T17:57:23.797Z,5.28
2019-04-28T17:59:57.953Z,4.67
2019-04-28T18:02:45.187Z,5.90
2019-04-28T18:05:18.945Z,4.28
2019-04-28T18:07:49.636Z,4.60
2019-04-28T18:10:20.427Z,3.87
2019-04-28T18:13:00.350Z,4.78
2019-04-28T18:15:24.939Z,5.28
2019-04-28T18:17:58.610Z,4.50
2019-04-28T18:20:28.140Z,5.80
2019-04-28T18:22:57.762Z,6.50
2019-04-28T18:25:27.274Z,5.78
2019-04-28T18:27:56.772Z,5.50
2019-04-28T18:30:28.073Z,4.00
2019-04-28T18:33:15.710Z,4.62
2019-04-28T18:35:46.941Z,5.53
2019-04-28T18:38:35.220Z,4.58
2019-04-28T18:41:05.541Z,5.37
2019-04-28T18:43:53.018Z,5.37
2019-04-28T18:46:24.167Z,3.98
2019-04-28T18:48:53.647Z,5.20
2019-04-28T18:51:23.171Z,4.53
2019-04-28T18:53:52.638Z,6.15
2019-04-28T18:56:22.070Z,5.08
2019-04-28T18:58:51.534Z,4.80
2019-04-28T19:01:31.777Z,4.85
2019-04-28T19:04:01.293Z,5.60
2019-04-28T19:06:30.842Z,5.92
2019-04-28T19:09:02.028Z,5.30
2019-04-28T19:11:37.340Z,5.25
2019-04-28T19:14:26.568Z,4.37
2019-04-28T19:17:01.156Z,4.40
2019-04-28T19:19:34.104Z,4.45
2019-04-28T19:22:03.758Z,5.55
2019-04-28T19:24:33.562Z,5.75
2019-04-28T19:27:03.588Z,5.87
2019-04-28T19:29:47.417Z,5.90
2019-04-28T19:32:17.473Z,5.15
2019-04-28T19:34:48.947Z,5.35
2019-04-28T19:37:18.604Z,5.83
2019-04-28T19:39:48.592Z,7.15
2019-04-28T19:42:18.313Z,7.30
2019-04-28T19:44:47.858Z,5.10
2019-04-28T19:47:17.569Z,6.78
2019-04-28T19:49:48.385Z,5.97
2019-04-28T19:52:17.987Z,5.90
2019-04-28T19:55:05.180Z,9.18
2019-04-28T19:57:38.202Z,7.03
2019-04-28T20:00:09.899Z,6.65
2019-04-28T20:02:41.053Z,7.92
2019-04-28T20:05:10.743Z,5.70
2019-04-28T20:07:41.008Z,8.33
2019-04-28T20:10:10.694Z,6.97
2019-04-28T20:12:40.326Z,5.90
2019-04-28T20:15:16.206Z,7.60
2019-04-28T20:17:45.748Z,6.72
2019-04-28T20:20:17.634Z,7.40
2019-04-28T20:22:47.160Z,6.47
2019-04-28T20:25:16.649Z,8.13
2019-04-28T20:27:50.281Z,7.45
2019-04-28T20:30:19.661Z,8.08
2019-04-28T20:32:49.177Z,7.03
2019-04-28T20:35:20.788Z,6.03
2019-04-28T20:37:51.827Z,5.80
2019-04-28T20:40:32.214Z,7.15
2019-04-28T20:43:08.790Z,6.65
2019-04-28T20:45:38.269Z,8.40
2019-04-28T20:48:07.669Z,6.55
2019-04-28T20:50:37.123Z,7.10
2019-04-28T20:53:06.505Z,7.00
2019-04-28T20:55:35.960Z,6.03
2019-04-28T20:58:05.501Z,6.58
2019-04-28T21:00:34.953Z,5.75
2019-04-28T21:03:05.562Z,7.10
2019-04-28T21:05:39.643Z,5.40
2019-04-28T21:08:09.257Z,6.62
2019-04-28T21:10:39.811Z,6.92
2019-04-28T21:13:12.197Z,5.60
2019-04-28T21:15:41.760Z,7.00
2019-04-28T21:18:11.374Z,6.58
2019-04-28T21:20:43.276Z,7.58
2019-04-28T21:23:12.701Z,7.53
2019-04-28T21:25:42.101Z,7.85
2019-04-28T21:28:11.504Z,6.90
2019-04-28T21:30:40.853Z,7.72
2019-04-28T21:33:10.248Z,7.22
2019-04-28T21:35:39.644Z,6.65
2019-04-28T21:38:09.781Z,7.87
2019-04-28T21:40:42.548Z,8.10
2019-04-28T21:43:16.170Z,7.00
2019-04-28T21:46:00.771Z,7.45
2019-04-28T21:48:40.998Z,6.85
2019-04-28T21:51:13.809Z,7.55
2019-04-28T21:53:44.862Z,7.78
2019-04-28T21:56:15.311Z,7.33
2019-04-28T21:58:48.973Z,9.68
2019-04-28T22:01:24.605Z,8.30
2019-04-28T22:03:54.180Z,6.72
2019-04-28T22:06:27.857Z,7.37
2019-04-28T22:08:58.877Z,8.70
2019-04-28T22:11:28.241Z,6.92
2019-04-28T22:13:57.649Z,7.05
2019-04-28T22:16:26.976Z,7.17
2019-04-28T22:18:56.374Z,9.75
2019-04-28T22:21:25.943Z,7.62
2019-04-28T22:23:59.549Z,6.30
2019-04-28T22:26:46.861Z,7.87
2019-04-28T22:29:16.459Z,8.20
2019-04-28T22:31:46.101Z,9.43
2019-04-28T22:34:18.329Z,9.13
2019-04-28T22:36:49.501Z,14.07
2019-04-28T22:39:20.167Z,10.72
2019-04-28T22:41:50.717Z,9.30
2019-04-28T22:44:21.328Z,8.80
2019-04-28T22:46:50.732Z,10.50
2019-04-28T22:49:20.135Z,7.95
2019-04-28T22:51:50.456Z,8.03
2019-04-28T22:54:25.504Z,7.92
2019-04-28T22:56:56.480Z,9.23
2019-04-28T22:59:30.198Z,9.35
2019-04-28T23:02:07.304Z,9.17
2019-04-28T23:04:38.359Z,10.08
2019-04-28T23:07:07.885Z,7.72
2019-04-28T23:09:37.398Z,8.05
2019-04-28T23:12:09.328Z,8.85
2019-04-28T23:14:38.839Z,8.78
2019-04-28T23:17:09.968Z,7.97
2019-04-28T23:19:40.955Z,10.40
2019-04-28T23:22:18.150Z,7.30
2019-04-28T23:24:49.219Z,9.83
2019-04-28T23:27:18.765Z,8.48
2019-04-28T23:29:58.784Z,7.55
2019-04-28T23:32:28.200Z,9.53
2019-04-28T23:34:57.613Z,8.90
2019-04-28T23:37:29.011Z,9.13
2019-04-28T23:39:58.433Z,8.65
2019-04-28T23:42:32.119Z,9.40
2019-04-28T23:45:01.459Z,9.63
2019-04-28T23:47:38.798Z,8.58
2019-04-28T23:50:10.108Z,8.10
2019-04-28T23:52:41.097Z,9.88
2019-04-28T23:55:10.659Z,8.65
2019-04-28T23:57:40.009Z,10.03
